Cusick, Washington
Current Conditions -  °F | °C
As of 4:10 AM on Friday 21 Nov 2014 (Local Time) from KDEW Reporting Station
Haze Haze  
Wind Chill: 32°   Ceiling: 1100
Heat Index: 32°   Visibility: 2mi
Dew Point: 31°   Wind: 0mph
Humidity: 96%   Direction: NA
Pressure: 29.93"   Gusts: NA
Location:  48.34°N, 117.3°W
Report Text: KDEW 211210Z AUTO 00000KT 2SM BR SCT003 OVC011 00/M01 A2993 RMK AO2 T00001006
Loading
Personal Weather Stations






























Interactive Weather Map New forecast layout! Learn more

10-Day Weather Forecast

Advertisements
Track Severe Weather on mobile